sensor_id;sensor_type;location;lat;lon;timestamp;temperature;humidity
44731;DHT22;30458;47.448;19.032;2023-11-19T00:05:27;5.70;99.90
44731;DHT22;30458;47.448;19.032;2023-11-19T00:15:30;5.90;99.90
44731;DHT22;30458;47.448;19.032;2023-11-19T00:25:31;5.90;99.90
44731;DHT22;30458;47.448;19.032;2023-11-19T00:35:32;6.00;99.90
44731;DHT22;30458;47.448;19.032;2023-11-19T00:45:33;5.80;99.90
44731;DHT22;30458;47.448;19.032;2023-11-19T00:55:34;5.40;99.90
44731;DHT22;30458;47.448;19.032;2023-11-19T01:05:34;5.00;99.90
44731;DHT22;30458;47.448;19.032;2023-11-19T01:15:36;4.40;99.90
44731;DHT22;30458;47.448;19.032;2023-11-19T01:25:37;4.80;99.90
44731;DHT22;30458;47.448;19.032;2023-11-19T01:35:38;5.10;99.90
44731;DHT22;30458;47.448;19.032;2023-11-19T01:45:42;5.10;99.90
44731;DHT22;30458;47.448;19.032;2023-11-19T01:55:42;5.20;99.90
44731;DHT22;30458;47.448;19.032;2023-11-19T02:05:43;5.10;99.90
44731;DHT22;30458;47.448;19.032;2023-11-19T02:15:47;5.10;99.90
44731;DHT22;30458;47.448;19.032;2023-11-19T02:36:16;4.80;99.90
44731;DHT22;30458;47.448;19.032;2023-11-19T02:46:17;4.80;99.90
44731;DHT22;30458;47.448;19.032;2023-11-19T02:56:18;4.70;99.90
44731;DHT22;30458;47.448;19.032;2023-11-19T03:06:30;4.70;99.90
44731;DHT22;30458;47.448;19.032;2023-11-19T03:16:33;4.70;99.90
44731;DHT22;30458;47.448;19.032;2023-11-19T03:26:36;4.80;99.90
44731;DHT22;30458;47.448;19.032;2023-11-19T03:36:38;4.70;99.90
44731;DHT22;30458;47.448;19.032;2023-11-19T03:46:38;4.60;99.90
44731;DHT22;30458;47.448;19.032;2023-11-19T03:56:39;4.60;99.90
44731;DHT22;30458;47.448;19.032;2023-11-19T04:06:42;4.70;99.90
44731;DHT22;30458;47.448;19.032;2023-11-19T04:16:43;4.60;99.90
44731;DHT22;30458;47.448;19.032;2023-11-19T04:26:45;4.50;99.90
44731;DHT22;30458;47.448;19.032;2023-11-19T04:36:47;4.50;99.90
44731;DHT22;30458;47.448;19.032;2023-11-19T04:46:52;4.40;99.90
44731;DHT22;30458;47.448;19.032;2023-11-19T04:56:55;4.30;99.90
44731;DHT22;30458;47.448;19.032;2023-11-19T05:06:59;4.00;99.90
44731;DHT22;30458;47.448;19.032;2023-11-19T05:17:02;4.10;99.90
44731;DHT22;30458;47.448;19.032;2023-11-19T05:27:03;4.20;99.90
44731;DHT22;30458;47.448;19.032;2023-11-19T05:37:07;4.30;99.90
44731;DHT22;30458;47.448;19.032;2023-11-19T05:47:10;4.40;99.90
44731;DHT22;30458;47.448;19.032;2023-11-19T05:57:11;4.60;99.90
44731;DHT22;30458;47.448;19.032;2023-11-19T06:07:14;4.40;99.90
44731;DHT22;30458;47.448;19.032;2023-11-19T06:17:17;4.30;99.90
44731;DHT22;30458;47.448;19.032;2023-11-19T06:27:18;4.10;99.90
44731;DHT22;30458;47.448;19.032;2023-11-19T06:37:22;4.30;99.90
44731;DHT22;30458;47.448;19.032;2023-11-19T06:47:28;4.60;99.90
44731;DHT22;30458;47.448;19.032;2023-11-19T06:57:31;4.80;99.90
44731;DHT22;30458;47.448;19.032;2023-11-19T07:07:32;5.40;99.90
44731;DHT22;30458;47.448;19.032;2023-11-19T07:17:39;6.40;99.90
44731;DHT22;30458;47.448;19.032;2023-11-19T07:27:40;7.40;99.90
44731;DHT22;30458;47.448;19.032;2023-11-19T07:37:42;6.90;99.90
44731;DHT22;30458;47.448;19.032;2023-11-19T07:47:43;6.40;99.90
44731;DHT22;30458;47.448;19.032;2023-11-19T07:57:49;5.60;99.90
44731;DHT22;30458;47.448;19.032;2023-11-19T08:07:50;5.00;99.90
44731;DHT22;30458;47.448;19.032;2023-11-19T08:17:51;4.60;99.90
44731;DHT22;30458;47.448;19.032;2023-11-19T08:27:55;4.90;99.90
44731;DHT22;30458;47.448;19.032;2023-11-19T08:38:01;4.50;99.90
44731;DHT22;30458;47.448;19.032;2023-11-19T08:48:04;4.20;99.90
44731;DHT22;30458;47.448;19.032;2023-11-19T08:58:07;4.80;99.90
44731;DHT22;30458;47.448;19.032;2023-11-19T09:08:08;5.20;99.90
44731;DHT22;30458;47.448;19.032;2023-11-19T09:18:09;5.70;99.90
44731;DHT22;30458;47.448;19.032;2023-11-19T09:28:12;5.90;99.90
44731;DHT22;30458;47.448;19.032;2023-11-19T09:38:15;6.10;99.90
44731;DHT22;30458;47.448;19.032;2023-11-19T09:48:18;6.10;99.90
44731;DHT22;30458;47.448;19.032;2023-11-19T09:58:19;6.20;99.90
44731;DHT22;30458;47.448;19.032;2023-11-19T10:08:25;5.90;99.90
44731;DHT22;30458;47.448;19.032;2023-11-19T10:18:26;5.90;99.90
44731;DHT22;30458;47.448;19.032;2023-11-19T10:28:27;5.60;99.90
44731;DHT22;30458;47.448;19.032;2023-11-19T10:38:30;5.80;99.90
44731;DHT22;30458;47.448;19.032;2023-11-19T10:48:31;5.80;99.90
44731;DHT22;30458;47.448;19.032;2023-11-19T10:58:35;6.10;99.90
44731;DHT22;30458;47.448;19.032;2023-11-19T11:08:39;6.00;99.90
44731;DHT22;30458;47.448;19.032;2023-11-19T11:18:40;6.10;99.90
44731;DHT22;30458;47.448;19.032;2023-11-19T11:29:01;5.70;99.90
44731;DHT22;30458;47.448;19.032;2023-11-19T11:39:04;5.70;99.90
44731;DHT22;30458;47.448;19.032;2023-11-19T11:49:09;5.70;99.90
44731;DHT22;30458;47.448;19.032;2023-11-19T11:59:21;5.60;99.90
44731;DHT22;30458;47.448;19.032;2023-11-19T12:09:24;5.70;99.90
44731;DHT22;30458;47.448;19.032;2023-11-19T12:19:32;5.80;99.90
44731;DHT22;30458;47.448;19.032;2023-11-19T12:29:42;5.90;99.90
44731;DHT22;30458;47.448;19.032;2023-11-19T12:39:45;6.40;99.90
44731;DHT22;30458;47.448;19.032;2023-11-19T12:49:56;6.30;99.90
44731;DHT22;30458;47.448;19.032;2023-11-19T12:59:57;6.20;99.90
44731;DHT22;30458;47.448;19.032;2023-11-19T13:10:02;6.30;99.90
44731;DHT22;30458;47.448;19.032;2023-11-19T13:20:03;6.20;99.90
44731;DHT22;30458;47.448;19.032;2023-11-19T13:30:05;6.30;99.90
44731;DHT22;30458;47.448;19.032;2023-11-19T13:40:10;6.30;99.90
44731;DHT22;30458;47.448;19.032;2023-11-19T13:50:15;6.40;99.90
44731;DHT22;30458;47.448;19.032;2023-11-19T14:00:18;6.40;99.90
44731;DHT22;30458;47.448;19.032;2023-11-19T14:10:25;6.40;99.90
44731;DHT22;30458;47.448;19.032;2023-11-19T14:20:26;6.60;99.90
44731;DHT22;30458;47.448;19.032;2023-11-19T14:30:27;6.70;99.90
44731;DHT22;30458;47.448;19.032;2023-11-19T14:40:28;6.60;99.90
44731;DHT22;30458;47.448;19.032;2023-11-19T14:50:34;6.60;99.90
44731;DHT22;30458;47.448;19.032;2023-11-19T15:00:35;6.60;99.90
44731;DHT22;30458;47.448;19.032;2023-11-19T15:10:35;6.90;99.90
44731;DHT22;30458;47.448;19.032;2023-11-19T15:20:39;7.10;99.90
44731;DHT22;30458;47.448;19.032;2023-11-19T15:30:39;7.10;99.90
44731;DHT22;30458;47.448;19.032;2023-11-19T15:40:40;7.20;99.90
44731;DHT22;30458;47.448;19.032;2023-11-19T15:50:45;7.20;99.90
44731;DHT22;30458;47.448;19.032;2023-11-19T16:00:46;7.20;99.90
44731;DHT22;30458;47.448;19.032;2023-11-19T16:10:49;7.30;99.90
44731;DHT22;30458;47.448;19.032;2023-11-19T16:20:50;7.30;99.90
44731;DHT22;30458;47.448;19.032;2023-11-19T16:30:51;7.30;99.90
44731;DHT22;30458;47.448;19.032;2023-11-19T16:40:52;7.30;99.90
44731;DHT22;30458;47.448;19.032;2023-11-19T16:50:56;7.30;99.90
44731;DHT22;30458;47.448;19.032;2023-11-19T17:01:02;7.10;99.90
44731;DHT22;30458;47.448;19.032;2023-11-19T17:11:04;7.20;99.90
44731;DHT22;30458;47.448;19.032;2023-11-19T17:21:08;7.00;99.90
44731;DHT22;30458;47.448;19.032;2023-11-19T17:31:11;7.20;99.90
44731;DHT22;30458;47.448;19.032;2023-11-19T17:41:12;7.30;99.90
44731;DHT22;30458;47.448;19.032;2023-11-19T17:51:13;7.30;99.90
44731;DHT22;30458;47.448;19.032;2023-11-19T18:01:17;7.10;99.90
44731;DHT22;30458;47.448;19.032;2023-11-19T18:11:18;7.10;99.90
44731;DHT22;30458;47.448;19.032;2023-11-19T18:21:21;7.20;99.90
44731;DHT22;30458;47.448;19.032;2023-11-19T18:31:21;7.20;99.90
44731;DHT22;30458;47.448;19.032;2023-11-19T18:41:25;7.30;99.90
44731;DHT22;30458;47.448;19.032;2023-11-19T18:51:28;7.30;99.90
44731;DHT22;30458;47.448;19.032;2023-11-19T19:01:29;7.30;99.90
44731;DHT22;30458;47.448;19.032;2023-11-19T19:11:32;7.10;99.90
44731;DHT22;30458;47.448;19.032;2023-11-19T19:21:34;7.10;99.90
44731;DHT22;30458;47.448;19.032;2023-11-19T19:31:35;6.90;99.90
44731;DHT22;30458;47.448;19.032;2023-11-19T19:41:36;6.60;99.90
44731;DHT22;30458;47.448;19.032;2023-11-19T19:51:40;6.80;99.90
44731;DHT22;30458;47.448;19.032;2023-11-19T20:01:45;7.10;99.90
44731;DHT22;30458;47.448;19.032;2023-11-19T20:11:45;7.20;99.90
44731;DHT22;30458;47.448;19.032;2023-11-19T20:21:51;7.20;99.90
44731;DHT22;30458;47.448;19.032;2023-11-19T20:31:52;7.30;99.90
44731;DHT22;30458;47.448;19.032;2023-11-19T20:41:52;7.10;99.90
44731;DHT22;30458;47.448;19.032;2023-11-19T20:51:53;7.10;99.90
44731;DHT22;30458;47.448;19.032;2023-11-19T21:01:54;7.00;99.90
44731;DHT22;30458;47.448;19.032;2023-11-19T21:11:57;7.10;99.90
44731;DHT22;30458;47.448;19.032;2023-11-19T21:21:58;7.30;99.90
44731;DHT22;30458;47.448;19.032;2023-11-19T21:31:59;7.30;99.90
44731;DHT22;30458;47.448;19.032;2023-11-19T21:42:00;7.30;99.90
44731;DHT22;30458;47.448;19.032;2023-11-19T21:52:00;7.30;99.90
44731;DHT22;30458;47.448;19.032;2023-11-19T22:02:01;7.00;99.90
44731;DHT22;30458;47.448;19.032;2023-11-19T22:12:04;7.10;99.90
44731;DHT22;30458;47.448;19.032;2023-11-19T22:22:11;7.00;99.90
44731;DHT22;30458;47.448;19.032;2023-11-19T22:32:15;7.00;99.90
44731;DHT22;30458;47.448;19.032;2023-11-19T22:42:18;6.50;99.90
44731;DHT22;30458;47.448;19.032;2023-11-19T22:52:24;6.20;99.90
44731;DHT22;30458;47.448;19.032;2023-11-19T23:02:25;6.40;99.90
44731;DHT22;30458;47.448;19.032;2023-11-19T23:12:28;6.60;99.90
44731;DHT22;30458;47.448;19.032;2023-11-19T23:22:29;6.80;99.90
44731;DHT22;30458;47.448;19.032;2023-11-19T23:32:30;7.00;99.90
44731;DHT22;30458;47.448;19.032;2023-11-19T23:42:30;7.00;99.90
44731;DHT22;30458;47.448;19.032;2023-11-19T23:52:34;6.60;99.90
